»·PEaware :: N172TT KSBP-KSMX

N172TT :: KSBP-KSMX

FLIGHT INFORMATION

Flight Status: Arrived
Operator: Privately registered:
United States
More flights under this callsign
Pilot: Thomas T. (19955)
Aircraft: CESSNA 172 SKYHAWK
(C172)
More flights by this aircraft type
Origin: KSBP San Luis Co Regl
United States
Destination: KSMX Santa Maria Pub/Capt Hancock
United States
More flights between these airports :: More routes between these airports
Route: +
File this flight plan on PilotEdge
Remarks:
Altitude:
(Current/Filed)
0ft
Speed:
(Current/Filed)
0kts
Departed: 05-Aug-18 01:40 PM
Arrived: 05-Aug-18 02:13 PM
Distance/Time
Traveled:
1nm/0:33
Distance/Time
To Go:
Arrived

Flight Plot

Page will automatically refresh every two minutes.


Map Options




Map Legend


Flown Route
Filed Route
Departure Airport
Arrival Airport
Navaid (VOR, NDB)
Fix

Horizontal Profiles

Position Reports

Time Latitude Longitude Heading Altitude Ground
Speed
05-Aug-18 13:35 35.238618 -120.639232 257 193ft 0kts
05-Aug-18 13:36 35.236630 -120.637867 123 199ft 13kts
05-Aug-18 13:37 35.234717 -120.634489 123 211ft 12kts
05-Aug-18 13:38 35.233182 -120.632063 183 213ft 0kts
05-Aug-18 13:39 35.233084 -120.632170 238 213ft 0kts
05-Aug-18 13:40 35.232824 -120.632974 276 211ft 9kts
05-Aug-18 13:41 35.240902 -120.645919 307 515ft 85kts
05-Aug-18 13:42 35.247888 -120.667974 218 1211ft 80kts
05-Aug-18 13:43 35.230519 -120.659366 133 1678ft 92kts
05-Aug-18 13:44 35.209182 -120.639810 153 1841ft 96kts
05-Aug-18 13:45 35.184308 -120.625601 153 1977ft 108kts
05-Aug-18 13:46 35.155265 -120.609173 155 2009ft 118kts
05-Aug-18 13:47 35.125123 -120.592545 155 2009ft 119kts
05-Aug-18 13:48 35.096176 -120.576643 155 2007ft 111kts
05-Aug-18 13:49 35.068188 -120.561307 155 2006ft 110kts
05-Aug-18 13:50 35.040242 -120.546040 155 2006ft 109kts
05-Aug-18 13:51 35.012670 -120.531024 155 2005ft 108kts
05-Aug-18 13:52 34.985616 -120.516360 155 1606ft 106kts
05-Aug-18 13:53 34.965468 -120.494678 119 1101ft 100kts
05-Aug-18 13:54 34.943566 -120.481110 110 1061ft 83kts
05-Aug-18 13:55 34.953972 -120.458517 7 1252ft 88kts
05-Aug-18 13:56 34.956127 -120.472834 213 1521ft 92kts
05-Aug-18 13:57 34.935165 -120.461234 111 1627ft 99kts
05-Aug-18 13:58 34.931682 -120.429266 73 1819ft 98kts
05-Aug-18 13:59 34.949129 -120.414679 302 1815ft 109kts
05-Aug-18 14:00 34.945868 -120.444797 279 1770ft 105kts
05-Aug-18 14:01 34.968745 -120.457285 358 2169ft 78kts
05-Aug-18 14:02 34.995109 -120.457536 359 2062ft 111kts
05-Aug-18 14:03 35.024982 -120.457696 359 2061ft 106kts
05-Aug-18 14:04 35.054418 -120.457815 359 2060ft 106kts
05-Aug-18 14:05 35.068100 -120.477679 224 2055ft 105kts
05-Aug-18 14:06 35.040188 -120.472958 160 1999ft 109kts
05-Aug-18 14:07 35.010654 -120.463450 176 1897ft 110kts
05-Aug-18 14:08 34.980617 -120.470202 190 1796ft 110kts
05-Aug-18 14:09 34.950359 -120.477095 179 1694ft 110kts
05-Aug-18 14:10 34.925728 -120.454813 135 1482ft 116kts
05-Aug-18 14:11 34.904745 -120.429656 135 1463ft 97kts
05-Aug-18 14:12 34.884680 -120.412109 192 1153ft 86kts
05-Aug-18 14:13 34.880859 -120.431390 311 930ft 77kts
05-Aug-18 14:14 34.894621 -120.448014 313 265ft 32kts
05-Aug-18 14:15 34.897250 -120.450009 4 265ft 15kts
05-Aug-18 14:16 35.238620 -120.639181 269 193ft 0kts
05-Aug-18 14:17 35.238620 -120.639181 269 193ft 0kts
05-Aug-18 14:18 35.238620 -120.639181 269 193ft 0kts
05-Aug-18 14:19 35.238620 -120.639181 269 193ft 0kts
05-Aug-18 14:20 35.238610 -120.639232 250 193ft 0kts
05-Aug-18 14:21 35.238606 -120.639249 249 193ft 0kts
05-Aug-18 14:22 35.236163 -120.637045 123 202ft 20kts
05-Aug-18 14:23 35.233447 -120.632217 131 213ft 12kts
05-Aug-18 14:24 35.233141 -120.632176 228 213ft 0kts
05-Aug-18 14:25 35.233222 -120.633750 304 210ft 31kts
05-Aug-18 14:26 35.246315 -120.652947 312 922ft 79kts
05-Aug-18 14:27 35.235851 -120.664213 131 1719ft 84kts
05-Aug-18 14:28 35.216120 -120.640420 151 1997ft 110kts

Navigation Log

Ident Type
1. KSBP Airport
2. KSMX Airport